Time;durP1;ratioP1;P1;durP2;ratioP2;P2;SDS_P1;SDS_P2;PMS_P1;PMS_P2;Temp;Humidity;BMP_temperature;BMP_pressure;BME280_temperature;BME280_humidity;BME280_pressure;Samples;Min_cycle;Max_cycle;Signal;HPM_P1;HPM_P2
2022/10/01 00:02:03;;;;;;;8.80;6.88;;;;;;;;;;5028119;28;20488;-86
2022/10/01 00:04:29;;;;;;;8.48;6.30;;;;;;;;;;5034936;28;20408;-86
2022/10/01 00:06:58;;;;;;;9.88;6.63;;;;;;;;;;5034751;28;20150;-85
2022/10/01 00:09:24;;;;;;;8.27;6.38;;;;;;;;;;5019357;28;20049;-84
2022/10/01 00:11:52;;;;;;;11.25;7.10;;;;;;;;;;5026344;28;20045;-86
2022/10/01 00:14:18;;;;;;;9.75;6.70;;;;;;;;;;5003803;28;20448;-85
2022/10/01 00:16:44;;;;;;;10.57;6.57;;;;;;;;;;5032123;28;20045;-85
2022/10/01 00:19:13;;;;;;;9.35;7.80;;;;;;;;;;5026917;28;20049;-84
2022/10/01 00:21:40;;;;;;;9.57;7.45;;;;;;;;;;5010252;28;20053;-86
2022/10/01 00:24:06;;;;;;;9.30;7.03;;;;;;;;;;5044526;28;20041;-86
2022/10/01 00:26:33;;;;;;;13.45;7.43;;;;;;;;;;5031448;28;20144;-87
2022/10/01 00:29:04;;;;;;;12.38;7.97;;;;;;;;;;5051467;28;20052;-87
2022/10/01 00:31:30;;;;;;;11.65;8.18;;;;;;;;;;5046590;28;20056;-87
2022/10/01 00:33:59;;;;;;;11.18;8.13;;;;;;;;;;5034809;28;20026;-87
2022/10/01 00:36:26;;;;;;;12.40;7.85;;;;;;;;;;5050296;28;20046;-86
2022/10/01 00:38:52;;;;;;;9.00;7.70;;;;;;;;;;5052536;28;20114;-88
2022/10/01 00:41:18;;;;;;;12.95;8.55;;;;;;;;;;5048370;28;20213;-88
2022/10/01 00:43:46;;;;;;;11.00;8.77;;;;;;;;;;5057505;28;20054;-86
2022/10/01 00:46:24;;;;;;;11.63;9.20;;;;;;;;;;5052664;28;20044;-87
2022/10/01 00:48:57;;;;;;;11.90;8.77;;;;;;;;;;5051257;28;20427;-87
2022/10/01 00:51:23;;;;;;;12.13;8.30;;;;;;;;;;5013287;28;20362;-87
2022/10/01 00:53:50;;;;;;;11.88;8.75;;;;;;;;;;5049065;28;20038;-87
2022/10/01 00:56:16;;;;;;;10.43;8.57;;;;;;;;;;5039850;28;20094;-89
2022/10/01 00:58:42;;;;;;;10.85;8.55;;;;;;;;;;5039870;28;20046;-87
2022/10/01 01:01:08;;;;;;;10.70;8.48;;;;;;;;;;5035890;28;20042;-87
2022/10/01 01:03:35;;;;;;;13.55;9.43;;;;;;;;;;5051979;28;20049;-88
2022/10/01 01:06:02;;;;;;;12.82;8.98;;;;;;;;;;5039246;28;20046;-88
2022/10/01 01:08:28;;;;;;;12.35;8.93;;;;;;;;;;5028026;28;20518;-88
2022/10/01 01:11:08;;;;;;;12.02;9.27;;;;;;;;;;5045058;28;20057;-87
2022/10/01 01:13:44;;;;;;;10.60;8.85;;;;;;;;;;5027658;28;20073;-87
2022/10/01 01:16:25;;;;;;;11.20;8.85;;;;;;;;;;5045627;28;20041;-86
2022/10/01 01:19:14;;;;;;;11.10;8.50;;;;;;;;;;5041660;28;20049;-90
2022/10/01 01:21:45;;;;;;;15.05;9.32;;;;;;;;;;4938313;29;20121;-89
2022/10/01 01:24:26;;;;;;;12.27;9.15;;;;;;;;;;4949953;29;20099;-88
2022/10/01 01:26:55;;;;;;;11.52;9.23;;;;;;;;;;4955229;29;20148;-89
2022/10/01 01:29:23;;;;;;;11.60;8.80;;;;;;;;;;4939156;29;20032;-89
2022/10/01 01:31:50;;;;;;;13.40;9.15;;;;;;;;;;4939487;29;20055;-89
2022/10/01 01:34:21;;;;;;;11.75;10.02;;;;;;;;;;4940226;29;20035;-89
2022/10/01 01:36:53;;;;;;;13.30;9.18;;;;;;;;;;4942257;29;20036;-89
2022/10/01 01:39:21;;;;;;;15.27;10.10;;;;;;;;;;4946750;29;20123;-87
2022/10/01 01:41:49;;;;;;;12.82;10.00;;;;;;;;;;4931963;29;20027;-89
2022/10/01 01:44:17;;;;;;;11.98;8.95;;;;;;;;;;4946716;29;20471;-87
2022/10/01 01:46:45;;;;;;;13.13;9.50;;;;;;;;;;4929570;29;20066;-90
2022/10/01 01:49:16;;;;;;;12.55;10.25;;;;;;;;;;4946855;29;20090;-88
2022/10/01 01:51:42;;;;;;;;;;;;;;;;;;4951017;29;20048;-87
2022/10/01 01:54:08;;;;;;;11.05;9.60;;;;;;;;;;4950979;29;19913;-88
2022/10/01 01:56:34;;;;;;;11.45;9.43;;;;;;;;;;4957039;29;20031;-88
2022/10/01 01:59:02;;;;;;;13.95;9.75;;;;;;;;;;5025915;28;20040;-88
2022/10/01 02:01:37;;;;;;;12.52;10.18;;;;;;;;;;5041740;28;20230;-89
2022/10/01 02:04:05;;;;;;;13.32;10.38;;;;;;;;;;5045328;28;20550;-88
2022/10/01 02:06:42;;;;;;;13.90;9.98;;;;;;;;;;5015027;28;20042;-88
2022/10/01 02:09:19;;;;;;;15.40;10.18;;;;;;;;;;5030430;28;20396;-88
2022/10/01 02:11:57;;;;;;;12.45;9.85;;;;;;;;;;5024730;28;20030;-87
2022/10/01 02:14:29;;;;;;;13.65;9.35;;;;;;;;;;5030946;28;20060;-86
2022/10/01 02:16:58;;;;;;;12.27;9.63;;;;;;;;;;5051512;28;20036;-86
2022/10/01 02:19:24;;;;;;;11.57;9.75;;;;;;;;;;5039079;28;20060;-89
2022/10/01 02:22:07;;;;;;;13.40;9.80;;;;;;;;;;5033989;28;20040;-90
2022/10/01 02:24:37;;;;;;;12.00;9.63;;;;;;;;;;5020322;28;20050;-88
2022/10/01 02:27:05;;;;;;;11.40;9.75;;;;;;;;;;5024548;28;20384;-88
2022/10/01 02:29:32;;;;;;;14.02;9.85;;;;;;;;;;5008542;28;20141;-89
2022/10/01 02:31:59;;;;;;;13.00;10.57;;;;;;;;;;5030136;28;20079;-88
2022/10/01 02:34:28;;;;;;;13.02;10.25;;;;;;;;;;5027502;28;20600;-88
2022/10/01 02:36:55;;;;;;;12.10;10.07;;;;;;;;;;5026782;28;20046;-86
2022/10/01 02:39:21;;;;;;;12.15;9.35;;;;;;;;;;5014070;28;20025;-84
2022/10/01 02:41:49;;;;;;;11.55;9.70;;;;;;;;;;5044828;28;20046;-85
2022/10/01 02:44:20;;;;;;;14.60;10.13;;;;;;;;;;5033497;28;20038;-84
2022/10/01 02:46:58;;;;;;;13.02;9.48;;;;;;;;;;5046217;28;20073;-85
2022/10/01 02:49:24;;;;;;;11.55;9.15;;;;;;;;;;5045716;28;20052;-85
2022/10/01 02:52:09;;;;;;;10.40;8.73;;;;;;;;;;5034503;28;20045;-84
2022/10/01 02:54:38;;;;;;;12.45;9.00;;;;;;;;;;5005896;28;20041;-84
2022/10/01 02:57:23;;;;;;;11.60;8.98;;;;;;;;;;5033565;28;20050;-85
2022/10/01 02:59:50;;;;;;;10.60;9.18;;;;;;;;;;5029531;28;20471;-85
2022/10/01 03:02:16;;;;;;;10.60;8.68;;;;;;;;;;5042417;28;20052;-85
2022/10/01 03:04:42;;;;;;;9.27;8.18;;;;;;;;;;5044478;28;20052;-86
2022/10/01 03:07:08;;;;;;;10.85;8.73;;;;;;;;;;5043796;28;20109;-86
2022/10/01 03:09:35;;;;;;;10.20;8.30;;;;;;;;;;5040282;28;20025;-87
2022/10/01 03:12:01;;;;;;;11.38;8.10;;;;;;;;;;5031702;28;20037;-88
2022/10/01 03:14:28;;;;;;;7.90;6.40;;;;;;;;;;5026174;28;20447;-88
2022/10/01 03:16:54;;;;;;;9.18;6.53;;;;;;;;;;5025075;28;20050;-88
2022/10/01 03:19:20;;;;;;;7.93;6.32;;;;;;;;;;5039412;28;20099;-89
2022/10/01 03:21:47;;;;;;;9.13;6.20;;;;;;;;;;5028267;28;20046;-88
2022/10/01 03:24:13;;;;;;;7.90;6.03;;;;;;;;;;5036300;28;20085;-89
2022/10/01 03:26:39;;;;;;;7.85;6.18;;;;;;;;;;5027037;28;20049;-89
2022/10/01 03:29:05;;;;;;;7.88;5.82;;;;;;;;;;5029583;28;20042;-88
2022/10/01 03:31:31;;;;;;;8.35;5.53;;;;;;;;;;5028571;28;20071;-90
2022/10/01 03:33:59;;;;;;;7.53;5.80;;;;;;;;;;5022037;28;20077;-88
2022/10/01 03:36:29;;;;;;;7.32;5.45;;;;;;;;;;5024112;28;20057;-87
2022/10/01 03:38:55;;;;;;;8.38;5.60;;;;;;;;;;5032343;28;20034;-88
2022/10/01 03:41:21;;;;;;;7.68;5.45;;;;;;;;;;5031881;28;20040;-87
2022/10/01 03:43:47;;;;;;;8.50;5.45;;;;;;;;;;5026607;28;20098;-87
2022/10/01 03:46:13;;;;;;;7.90;4.68;;;;;;;;;;5030712;28;20069;-87
2022/10/01 03:48:39;;;;;;;7.05;4.90;;;;;;;;;;5019887;28;20053;-88
2022/10/01 03:51:05;;;;;;;6.28;4.82;;;;;;;;;;5033683;28;20124;-89
2022/10/01 03:53:32;;;;;;;6.50;4.50;;;;;;;;;;5031300;28;20042;-86
2022/10/01 03:55:58;;;;;;;6.43;4.10;;;;;;;;;;5008155;28;20041;-88
2022/10/01 03:58:24;;;;;;;5.80;4.28;;;;;;;;;;5041510;28;20045;-86
2022/10/01 04:00:51;;;;;;;6.50;4.25;;;;;;;;;;5021008;28;20042;-88
2022/10/01 04:03:17;;;;;;;5.85;4.03;;;;;;;;;;5001450;28;20087;-89
2022/10/01 04:05:44;;;;;;;5.32;3.15;;;;;;;;;;5035506;28;20042;-87
2022/10/01 04:08:10;;;;;;;6.00;3.80;;;;;;;;;;5035373;28;20037;-88
2022/10/01 04:10:36;;;;;;;8.57;3.90;;;;;;;;;;5031640;28;20052;-88
2022/10/01 04:13:02;;;;;;;5.32;3.50;;;;;;;;;;5035292;28;20021;-88
2022/10/01 04:15:28;;;;;;;7.53;3.90;;;;;;;;;;5028945;28;20033;-88
2022/10/01 04:17:54;;;;;;;5.50;3.17;;;;;;;;;;5029506;28;20053;-88
2022/10/01 04:20:20;;;;;;;5.32;3.13;;;;;;;;;;5025763;28;20053;-89
2022/10/01 04:22:47;;;;;;;5.72;3.63;;;;;;;;;;5033445;28;20488;-89
2022/10/01 04:25:13;;;;;;;5.43;3.50;;;;;;;;;;5014607;28;20046;-89
2022/10/01 04:27:40;;;;;;;5.22;3.20;;;;;;;;;;5017988;28;20046;-89
2022/10/01 04:30:07;;;;;;;5.75;3.35;;;;;;;;;;5036264;28;20101;-89
2022/10/01 04:32:33;;;;;;;4.60;2.90;;;;;;;;;;5031038;28;20048;-89
2022/10/01 04:35:01;;;;;;;6.13;3.00;;;;;;;;;;5036180;28;20140;-89
2022/10/01 04:37:27;;;;;;;5.80;3.25;;;;;;;;;;5002159;28;20210;-88
2022/10/01 04:39:53;;;;;;;5.30;3.38;;;;;;;;;;5020894;28;20124;-89
2022/10/01 04:42:20;;;;;;;5.68;3.40;;;;;;;;;;5012618;28;20131;-90
2022/10/01 04:44:46;;;;;;;5.75;3.17;;;;;;;;;;5033654;28;20060;-89
2022/10/01 04:47:12;;;;;;;5.30;3.25;;;;;;;;;;5041002;28;20046;-86
2022/10/01 04:49:38;;;;;;;5.63;3.45;;;;;;;;;;5032064;28;20041;-89
2022/10/01 04:52:04;;;;;;;6.57;3.30;;;;;;;;;;5043986;28;20105;-88
2022/10/01 04:54:33;;;;;;;5.03;3.50;;;;;;;;;;5040134;28;20041;-90
2022/10/01 04:56:59;;;;;;;6.22;3.25;;;;;;;;;;5024062;28;20050;-90
2022/10/01 04:59:26;;;;;;;5.70;3.60;;;;;;;;;;5034188;28;20044;-90
2022/10/01 05:01:52;;;;;;;5.00;3.22;;;;;;;;;;5034922;28;20103;-90
2022/10/01 05:04:18;;;;;;;5.07;3.17;;;;;;;;;;5032747;28;20118;-88
2022/10/01 05:06:44;;;;;;;5.78;2.70;;;;;;;;;;5040109;28;20042;-89
2022/10/01 05:09:10;;;;;;;5.00;3.00;;;;;;;;;;5006307;28;20125;-88
2022/10/01 05:11:37;;;;;;;5.28;3.33;;;;;;;;;;5019667;28;20060;-89
2022/10/01 05:14:04;;;;;;;4.43;2.72;;;;;;;;;;5029438;28;20455;-89
2022/10/01 05:16:30;;;;;;;5.13;2.97;;;;;;;;;;5036833;28;20091;-89
2022/10/01 05:18:56;;;;;;;5.53;2.80;;;;;;;;;;5035662;28;20045;-89
2022/10/01 05:21:22;;;;;;;5.10;3.45;;;;;;;;;;5022435;28;20045;-90
2022/10/01 05:23:48;;;;;;;5.68;3.33;;;;;;;;;;5026274;28;20124;-91
2022/10/01 05:26:14;;;;;;;4.80;3.20;;;;;;;;;;5029916;28;20068;-92
2022/10/01 05:28:43;;;;;;;5.35;3.28;;;;;;;;;;5034070;28;20045;-90
2022/10/01 05:31:09;;;;;;;4.85;3.10;;;;;;;;;;5037329;28;20045;-91
2022/10/01 05:33:35;;;;;;;5.38;3.00;;;;;;;;;;5031048;28;20042;-90
2022/10/01 05:36:03;;;;;;;5.25;2.90;;;;;;;;;;5012134;28;20057;-89
2022/10/01 05:38:30;;;;;;;6.03;3.20;;;;;;;;;;5026009;28;20053;-90
2022/10/01 05:40:56;;;;;;;5.03;3.22;;;;;;;;;;5030631;28;20056;-91
2022/10/01 05:43:24;;;;;;;5.30;3.30;;;;;;;;;;5034051;28;20033;-92
2022/10/01 05:45:50;;;;;;;5.22;2.78;;;;;;;;;;5039771;28;20073;-90
2022/10/01 05:48:16;;;;;;;6.22;3.28;;;;;;;;;;5044432;28;20050;-89
2022/10/01 05:50:43;;;;;;;5.45;3.60;;;;;;;;;;5038378;28;20049;-90
2022/10/01 05:53:14;;;;;;;5.18;3.25;;;;;;;;;;5036426;28;20103;-90
2022/10/01 05:55:40;;;;;;;4.78;3.22;;;;;;;;;;5019035;28;20372;-90
2022/10/01 05:58:09;;;;;;;5.65;3.60;;;;;;;;;;5011213;28;20041;-91
2022/10/01 06:00:35;;;;;;;6.38;3.10;;;;;;;;;;5034127;28;20068;-91
2022/10/01 06:03:02;;;;;;;6.00;3.88;;;;;;;;;;5038542;28;20044;-91
2022/10/01 06:05:29;;;;;;;7.15;4.07;;;;;;;;;;5034026;28;20021;-91
2022/10/01 06:07:55;;;;;;;7.15;3.60;;;;;;;;;;5027868;28;20042;-90
2022/10/01 06:10:22;;;;;;;5.25;3.53;;;;;;;;;;5038793;28;20050;-89
2022/10/01 06:12:48;;;;;;;6.38;3.72;;;;;;;;;;5030231;28;20057;-88
2022/10/01 06:15:15;;;;;;;5.72;3.90;;;;;;;;;;5037199;28;20045;-90
2022/10/01 06:17:45;;;;;;;7.47;4.05;;;;;;;;;;5028555;28;20047;-89
2022/10/01 06:20:16;;;;;;;6.93;4.20;;;;;;;;;;5024119;28;20623;-89
2022/10/01 06:22:43;;;;;;;5.43;3.67;;;;;;;;;;5023500;28;20045;-90
2022/10/01 06:25:14;;;;;;;5.82;4.20;;;;;;;;;;5031827;28;20048;-89
2022/10/01 06:27:40;;;;;;;6.65;4.80;;;;;;;;;;5028491;28;20046;-89
2022/10/01 06:30:06;;;;;;;6.97;5.10;;;;;;;;;;5037630;28;20041;-87
2022/10/01 06:32:33;;;;;;;8.15;4.78;;;;;;;;;;5044172;28;20082;-88
2022/10/01 06:34:59;;;;;;;9.38;5.47;;;;;;;;;;5039003;28;20176;-88
2022/10/01 06:37:25;;;;;;;7.88;5.95;;;;;;;;;;5043907;28;20045;-88
2022/10/01 06:39:51;;;;;;;8.48;6.03;;;;;;;;;;5042554;28;20388;-87
2022/10/01 06:42:17;;;;;;;14.30;8.65;;;;;;;;;;5019133;28;20104;-86
2022/10/01 06:44:43;;;;;;;9.65;6.65;;;;;;;;;;5039054;28;20057;-86
2022/10/01 06:47:09;;;;;;;12.68;8.45;;;;;;;;;;5022945;28;20072;-89
2022/10/01 06:49:35;;;;;;;10.27;6.95;;;;;;;;;;5015784;28;20060;-89
2022/10/01 06:54:46;;;;;;;9.48;5.35;;;;;;;;;;5029002;28;20053;-89
2022/10/01 06:57:12;;;;;;;9.20;6.20;;;;;;;;;;5040666;28;20085;-88
2022/10/01 06:59:40;;;;;;;13.45;7.15;;;;;;;;;;5039968;28;20033;-88
2022/10/01 07:02:06;;;;;;;10.63;6.88;;;;;;;;;;5019853;28;20105;-89
2022/10/01 07:04:32;;;;;;;10.43;6.45;;;;;;;;;;5027448;28;20096;-89
2022/10/01 07:06:58;;;;;;;11.73;6.85;;;;;;;;;;5047571;28;20041;-89
2022/10/01 07:09:24;;;;;;;8.57;6.35;;;;;;;;;;5033809;28;20041;-89
2022/10/01 07:11:51;;;;;;;12.52;6.30;;;;;;;;;;5023853;28;20060;-88
2022/10/01 07:14:18;;;;;;;14.13;6.57;;;;;;;;;;5025610;28;20173;-89
2022/10/01 07:16:44;;;;;;;13.85;6.85;;;;;;;;;;5037065;28;20029;-86
2022/10/01 07:19:10;;;;;;;9.48;5.57;;;;;;;;;;5009083;28;20034;-85
2022/10/01 07:21:37;;;;;;;9.32;6.60;;;;;;;;;;5036075;28;20042;-87
2022/10/01 07:24:03;;;;;;;11.15;6.70;;;;;;;;;;5040656;28;20043;-86
2022/10/01 07:26:29;;;;;;;10.98;6.25;;;;;;;;;;5014283;28;20176;-86
2022/10/01 07:28:55;;;;;;;14.38;6.75;;;;;;;;;;5042322;28;20038;-87
2022/10/01 07:31:22;;;;;;;10.43;6.32;;;;;;;;;;5031271;28;20512;-87
2022/10/01 07:33:49;;;;;;;9.80;6.45;;;;;;;;;;5032120;28;20103;-88
2022/10/01 07:36:15;;;;;;;11.10;6.07;;;;;;;;;;5046021;28;20045;-87
2022/10/01 07:38:42;;;;;;;11.25;6.82;;;;;;;;;;5035254;28;20191;-85
2022/10/01 07:41:09;;;;;;;15.98;7.43;;;;;;;;;;5043083;28;20061;-86
2022/10/01 07:43:35;;;;;;;9.77;7.07;;;;;;;;;;5034485;28;20053;-86
2022/10/01 07:46:04;;;;;;;11.70;5.20;;;;;;;;;;5038928;28;20045;-88
2022/10/01 07:48:30;;;;;;;11.55;5.68;;;;;;;;;;5023129;28;20164;-87
2022/10/01 07:50:56;;;;;;;10.65;5.20;;;;;;;;;;5035917;28;20048;-88
2022/10/01 07:53:24;;;;;;;9.90;5.50;;;;;;;;;;5026296;28;20217;-88
2022/10/01 07:55:50;;;;;;;12.15;6.63;;;;;;;;;;5014551;28;20460;-88
2022/10/01 07:58:17;;;;;;;12.13;6.18;;;;;;;;;;5024394;28;20041;-89
2022/10/01 08:00:43;;;;;;;12.52;6.10;;;;;;;;;;5023313;28;20052;-90
2022/10/01 08:03:12;;;;;;;12.18;6.13;;;;;;;;;;5032563;28;20050;-90
2022/10/01 08:05:40;;;;;;;9.10;5.85;;;;;;;;;;5018606;28;20045;-90
2022/10/01 08:08:07;;;;;;;12.25;6.50;;;;;;;;;;5040147;28;20625;-90
2022/10/01 08:10:34;;;;;;;12.00;6.22;;;;;;;;;;5045760;28;20124;-89
2022/10/01 08:13:07;;;;;;;12.32;5.97;;;;;;;;;;5038915;28;20049;-88
2022/10/01 08:15:33;;;;;;;12.55;5.05;;;;;;;;;;5032828;28;20080;-88
2022/10/01 08:18:03;;;;;;;10.30;4.35;;;;;;;;;;5031556;28;20072;-88
2022/10/01 08:20:30;;;;;;;12.07;4.40;;;;;;;;;;5041855;28;20077;-89
2022/10/01 08:23:06;;;;;;;10.77;4.00;;;;;;;;;;5030727;28;20044;-88
2022/10/01 08:25:32;;;;;;;10.93;3.75;;;;;;;;;;5056774;28;20052;-89
2022/10/01 08:28:01;;;;;;;10.93;3.72;;;;;;;;;;5036200;28;20452;-88
2022/10/01 08:30:28;;;;;;;13.15;3.90;;;;;;;;;;5043468;28;20120;-89
2022/10/01 08:32:58;;;;;;;12.38;4.05;;;;;;;;;;5035236;28;20033;-89
2022/10/01 08:35:25;;;;;;;11.52;3.63;;;;;;;;;;5028702;28;20120;-91
2022/10/01 08:37:55;;;;;;;13.98;3.80;;;;;;;;;;5026015;28;20048;-87
2022/10/01 08:40:22;;;;;;;10.70;3.90;;;;;;;;;;5029276;28;20041;-89
2022/10/01 08:42:51;;;;;;;12.77;4.70;;;;;;;;;;5015664;28;20064;-91
2022/10/01 08:45:22;;;;;;;13.60;4.20;;;;;;;;;;5029030;28;20080;-91
2022/10/01 08:48:11;;;;;;;16.05;4.55;;;;;;;;;;5051919;28;20052;-91
2022/10/01 08:50:41;;;;;;;14.43;4.20;;;;;;;;;;5051435;28;20045;-90
2022/10/01 08:53:12;;;;;;;15.82;4.78;;;;;;;;;;5040695;28;20038;-90
2022/10/01 08:55:40;;;;;;;12.02;4.07;;;;;;;;;;5033543;28;20048;-91
2022/10/01 08:58:09;;;;;;;9.98;3.90;;;;;;;;;;5039347;28;20037;-92
2022/10/01 09:00:36;;;;;;;11.18;4.10;;;;;;;;;;5037480;28;20071;-91
2022/10/01 09:03:04;;;;;;;11.98;3.97;;;;;;;;;;5050275;28;20562;-89
2022/10/01 09:05:38;;;;;;;17.92;4.35;;;;;;;;;;5018179;28;20054;-88
2022/10/01 09:08:04;;;;;;;14.07;3.70;;;;;;;;;;5012974;28;20053;-90
2022/10/01 09:10:35;;;;;;;10.60;2.95;;;;;;;;;;5016433;28;20065;-90
2022/10/01 09:13:03;;;;;;;12.27;3.15;;;;;;;;;;5028770;28;20491;-88
2022/10/01 09:15:48;;;;;;;11.60;3.00;;;;;;;;;;5030561;28;20038;-87
2022/10/01 09:18:34;;;;;;;13.45;2.83;;;;;;;;;;5046299;28;20229;-88
2022/10/01 09:21:00;;;;;;;14.25;2.60;;;;;;;;;;5027177;28;20456;-88
2022/10/01 09:23:30;;;;;;;12.95;2.58;;;;;;;;;;5040315;28;20072;-88
2022/10/01 09:25:58;;;;;;;16.60;3.28;;;;;;;;;;5019738;28;20109;-88
2022/10/01 09:28:28;;;;;;;12.40;2.55;;;;;;;;;;5021253;28;20038;-87
2022/10/01 09:31:13;;;;;;;12.07;2.55;;;;;;;;;;5038862;28;20044;-88
2022/10/01 09:33:41;;;;;;;13.90;2.60;;;;;;;;;;5024149;28;20518;-86
2022/10/01 09:36:26;;;;;;;15.75;2.42;;;;;;;;;;5012742;28;20054;-86
2022/10/01 09:39:01;;;;;;;14.30;2.30;;;;;;;;;;5009165;28;20800;-87
2022/10/01 09:41:30;;;;;;;15.35;2.70;;;;;;;;;;5023713;28;20388;-86
2022/10/01 09:43:56;;;;;;;10.93;2.35;;;;;;;;;;5018804;28;20050;-87
2022/10/01 09:46:25;;;;;;;11.93;2.45;;;;;;;;;;5033205;28;20045;-86
2022/10/01 09:48:56;;;;;;;10.30;1.90;;;;;;;;;;5030142;28;20063;-88
2022/10/01 09:51:24;;;;;;;10.38;1.65;;;;;;;;;;5024440;28;20072;-88
2022/10/01 09:53:56;;;;;;;10.40;1.95;;;;;;;;;;4996888;28;20052;-87
2022/10/01 09:56:28;;;;;;;9.93;1.42;;;;;;;;;;5033896;28;20049;-88
2022/10/01 09:58:57;;;;;;;9.70;1.70;;;;;;;;;;5033023;28;20056;-88
2022/10/01 10:01:28;;;;;;;7.97;1.90;;;;;;;;;;5015594;28;20057;-87
2022/10/01 10:03:56;;;;;;;8.18;1.80;;;;;;;;;;5041896;28;20072;-88
2022/10/01 10:06:26;;;;;;;8.57;1.63;;;;;;;;;;5026217;28;20511;-87
2022/10/01 10:08:52;;;;;;;10.05;1.83;;;;;;;;;;5028753;28;20041;-88
2022/10/01 10:11:23;;;;;;;9.60;1.90;;;;;;;;;;5027259;28;20056;-90
2022/10/01 10:13:50;;;;;;;12.93;1.80;;;;;;;;;;5024742;28;20373;-87
2022/10/01 10:16:16;;;;;;;8.05;1.58;;;;;;;;;;5040845;28;20060;-88
2022/10/01 10:18:42;;;;;;;8.50;1.27;;;;;;;;;;5024116;28;20050;-90
2022/10/01 10:21:15;;;;;;;7.43;1.85;;;;;;;;;;5037533;28;20053;-89
2022/10/01 10:23:51;;;;;;;9.23;2.15;;;;;;;;;;5040122;28;20485;-90
2022/10/01 10:26:22;;;;;;;6.57;1.63;;;;;;;;;;5029741;28;20108;-88
2022/10/01 10:28:48;;;;;;;5.30;1.02;;;;;;;;;;5027377;28;20045;-87
2022/10/01 10:31:18;;;;;;;8.60;2.65;;;;;;;;;;5022785;28;20056;-87
2022/10/01 10:33:45;;;;;;;6.47;1.70;;;;;;;;;;5030804;28;20037;-88
2022/10/01 10:36:14;;;;;;;7.80;1.38;;;;;;;;;;5023062;28;20454;-87
2022/10/01 10:38:44;;;;;;;6.68;1.73;;;;;;;;;;5033879;28;20045;-87
2022/10/01 10:41:15;;;;;;;6.45;1.10;;;;;;;;;;5034317;28;20105;-86
2022/10/01 10:43:43;;;;;;;6.65;1.30;;;;;;;;;;5023867;28;20592;-88
2022/10/01 10:46:10;;;;;;;6.85;1.40;;;;;;;;;;5037554;28;20159;-87
2022/10/01 10:48:48;;;;;;;8.52;1.33;;;;;;;;;;5025289;28;20071;-89
2022/10/01 10:51:14;;;;;;;7.82;1.38;;;;;;;;;;5029945;28;20098;-88
2022/10/01 10:53:42;;;;;;;6.22;1.13;;;;;;;;;;5026528;28;20049;-87
2022/10/01 10:56:22;;;;;;;11.05;1.92;;;;;;;;;;5032070;28;20037;-82
2022/10/01 10:58:49;;;;;;;9.38;1.92;;;;;;;;;;5037477;28;20065;-82
2022/10/01 11:01:19;;;;;;;10.38;1.83;;;;;;;;;;5046017;28;20037;-83
2022/10/01 11:03:54;;;;;;;10.65;1.77;;;;;;;;;;5050232;28;20093;-84
2022/10/01 11:06:21;;;;;;;9.48;1.45;;;;;;;;;;5036858;28;20034;-81
2022/10/01 11:08:55;;;;;;;5.90;1.25;;;;;;;;;;5037183;28;20042;-82
2022/10/01 11:11:22;;;;;;;6.32;1.25;;;;;;;;;;5037592;28;20034;-82
2022/10/01 11:14:00;;;;;;;8.65;1.10;;;;;;;;;;5047294;28;20049;-81
2022/10/01 11:16:32;;;;;;;6.47;0.95;;;;;;;;;;5051349;28;20078;-83
2022/10/01 11:19:01;;;;;;;5.65;0.88;;;;;;;;;;5034543;28;20033;-83
2022/10/01 11:21:35;;;;;;;4.82;0.93;;;;;;;;;;5043142;28;20046;-84
2022/10/01 11:24:06;;;;;;;4.95;0.90;;;;;;;;;;5034938;28;20041;-84
2022/10/01 11:26:47;;;;;;;5.75;1.05;;;;;;;;;;5024200;28;20068;-84
2022/10/01 11:29:13;;;;;;;;;;;;;;;;;;5074699;22;20083;-70
2022/10/01 11:32:01;;;;;;;6.15;1.08;;;;;;;;;;5055514;28;19921;-70
2022/10/01 11:35:03;;;;;;;4.30;0.70;;;;;;;;;;5046424;28;20068;-70
2022/10/01 11:37:48;;;;;;;6.53;1.00;;;;;;;;;;4976993;28;20054;-69
2022/10/01 11:40:17;;;;;;;8.07;1.02;;;;;;;;;;4977420;28;20073;-69
2022/10/01 11:42:45;;;;;;;5.57;0.80;;;;;;;;;;4993864;28;20405;-68
2022/10/01 11:45:31;;;;;;;5.28;1.05;;;;;;;;;;4991737;28;20061;-68
2022/10/01 11:48:03;;;;;;;5.03;1.00;;;;;;;;;;4992089;28;20042;-69
2022/10/01 11:50:31;;;;;;;6.80;1.20;;;;;;;;;;4988261;28;20410;-69
2022/10/01 11:53:03;;;;;;;7.25;1.30;;;;;;;;;;4974486;28;20540;-69
2022/10/01 11:58:50;;;;;;;5.32;1.00;;;;;;;;;;4991662;28;20460;-69
2022/10/01 12:01:18;;;;;;;7.45;1.00;;;;;;;;;;4993010;28;20057;-70
2022/10/01 12:03:54;;;;;;;8.93;1.35;;;;;;;;;;4992832;28;20050;-69
2022/10/01 12:06:21;;;;;;;5.85;1.00;;;;;;;;;;4976655;28;20431;-69
2022/10/01 12:08:52;;;;;;;9.70;1.70;;;;;;;;;;5002627;28;20137;-69
2022/10/01 12:11:21;;;;;;;8.20;1.50;;;;;;;;;;5014296;28;20521;-69
2022/10/01 12:13:59;;;;;;;7.82;1.63;;;;;;;;;;5042426;28;20045;-69
2022/10/01 12:16:41;;;;;;;9.25;1.60;;;;;;;;;;5040281;28;20048;-68
2022/10/01 12:19:16;;;;;;;8.20;1.40;;;;;;;;;;5053417;28;20153;-69
2022/10/01 12:21:44;;;;;;;10.20;1.80;;;;;;;;;;5053736;28;20045;-70
2022/10/01 12:24:10;;;;;;;11.43;2.05;;;;;;;;;;5052782;28;20045;-69
2022/10/01 12:26:52;;;;;;;12.23;2.05;;;;;;;;;;5054317;28;20102;-69
2022/10/01 12:29:47;;;;;;;9.45;1.92;;;;;;;;;;5048454;28;20053;-69
2022/10/01 12:32:24;;;;;;;13.82;1.88;;;;;;;;;;5050089;28;20486;-69
2022/10/01 12:34:52;;;;;;;11.60;2.47;;;;;;;;;;5038081;28;20509;-69
2022/10/01 12:37:38;;;;;;;11.43;2.17;;;;;;;;;;5052106;28;20529;-70
2022/10/01 12:40:07;;;;;;;10.77;2.00;;;;;;;;;;5053126;28;20052;-69
2022/10/01 12:42:52;;;;;;;10.57;2.22;;;;;;;;;;5064644;28;20641;-69
2022/10/01 12:45:23;;;;;;;10.30;1.98;;;;;;;;;;5063140;28;20479;-69
2022/10/01 12:47:55;;;;;;;14.23;2.25;;;;;;;;;;5045521;28;20049;-69
2022/10/01 12:50:26;;;;;;;18.20;3.88;;;;;;;;;;5046732;28;20040;-69
2022/10/01 12:53:03;;;;;;;15.20;2.70;;;;;;;;;;5049772;28;20064;-68
2022/10/01 12:55:52;;;;;;;11.00;1.73;;;;;;;;;;5048128;28;20464;-69
2022/10/01 12:58:30;;;;;;;8.43;1.88;;;;;;;;;;5052174;28;20049;-68
2022/10/01 13:01:00;;;;;;;10.65;1.67;;;;;;;;;;5043270;28;20124;-68
2022/10/01 13:03:36;;;;;;;10.45;1.90;;;;;;;;;;5052882;28;20270;-68
2022/10/01 13:06:08;;;;;;;11.52;1.65;;;;;;;;;;5053499;28;20045;-69
2022/10/01 13:08:52;;;;;;;11.52;1.70;;;;;;;;;;5052431;28;20039;-68
2022/10/01 13:11:25;;;;;;;11.23;1.85;;;;;;;;;;5052249;28;20068;-69
2022/10/01 13:13:52;;;;;;;12.30;1.80;;;;;;;;;;5055357;28;20050;-73
2022/10/01 13:16:44;;;;;;;12.10;1.98;;;;;;;;;;5054529;28;20051;-69
2022/10/01 13:19:20;;;;;;;9.82;1.85;;;;;;;;;;5033278;28;20068;-68
2022/10/01 13:22:08;;;;;;;11.25;2.10;;;;;;;;;;5033606;28;20038;-68
2022/10/01 13:24:43;;;;;;;9.85;1.80;;;;;;;;;;5033448;28;20053;-71
2022/10/01 13:27:27;;;;;;;11.88;1.92;;;;;;;;;;5051426;28;20084;-67
2022/10/01 13:30:12;;;;;;;12.10;2.15;;;;;;;;;;5052307;28;20501;-67
2022/10/01 13:32:51;;;;;;;11.75;2.17;;;;;;;;;;5054137;28;20053;-66
2022/10/01 13:35:20;;;;;;;12.27;1.92;;;;;;;;;;5050416;28;20041;-67
2022/10/01 13:37:46;;;;;;;16.75;2.22;;;;;;;;;;5052647;28;20132;-66
2022/10/01 13:40:40;;;;;;;9.13;1.73;;;;;;;;;;5055959;28;20045;-69
2022/10/01 13:43:15;;;;;;;11.77;2.22;;;;;;;;;;5049329;28;20057;-66
2022/10/01 13:45:44;;;;;;;10.02;2.17;;;;;;;;;;5052119;28;20056;-68
2022/10/01 13:48:10;;;;;;;11.80;2.15;;;;;;;;;;5053180;28;20041;-70
2022/10/01 13:50:37;;;;;;;11.73;2.35;;;;;;;;;;5055467;28;20041;-70
2022/10/01 13:53:14;;;;;;;13.20;2.10;;;;;;;;;;5044299;28;20038;-69
2022/10/01 13:55:41;;;;;;;8.93;1.95;;;;;;;;;;5034588;28;20081;-69
2022/10/01 13:58:21;;;;;;;10.65;1.92;;;;;;;;;;5047207;28;20120;-67
2022/10/01 14:00:48;;;;;;;12.05;6.15;;;;;;;;;;5038383;28;20064;-67
2022/10/01 14:03:27;;;;;;;12.20;6.13;;;;;;;;;;5039148;28;20041;-67
2022/10/01 14:05:56;;;;;;;12.20;2.67;;;;;;;;;;5052425;28;20386;-68
2022/10/01 14:08:22;;;;;;;14.30;2.38;;;;;;;;;;5069715;28;20048;-68
2022/10/01 14:16:28;;;;;;;11.50;2.20;;;;;;;;;;5052383;28;20483;-67
2022/10/01 14:18:55;;;;;;;13.73;2.10;;;;;;;;;;5032709;28;20053;-68
2022/10/01 14:21:32;;;;;;;11.88;2.50;;;;;;;;;;5062449;28;20041;-68
2022/10/01 14:24:13;;;;;;;13.60;2.20;;;;;;;;;;5056667;28;20119;-68
2022/10/01 14:26:46;;;;;;;15.35;2.58;;;;;;;;;;5064397;28;20110;-68
2022/10/01 14:29:25;;;;;;;13.18;2.47;;;;;;;;;;5030802;28;20119;-67
2022/10/01 14:31:59;;;;;;;12.05;2.05;;;;;;;;;;5024513;28;20049;-68
2022/10/01 14:34:50;;;;;;;13.23;2.13;;;;;;;;;;5019664;28;20095;-67
2022/10/01 14:37:18;;;;;;;13.23;2.28;;;;;;;;;;5015940;28;20046;-67
2022/10/01 14:39:44;;;;;;;15.75;2.10;;;;;;;;;;5026313;28;20053;-68
2022/10/01 14:42:14;;;;;;;12.18;2.03;;;;;;;;;;5031923;28;20053;-68
2022/10/01 14:44:42;;;;;;;12.18;2.13;;;;;;;;;;5028373;28;20049;-68
2022/10/01 14:47:17;;;;;;;11.68;2.42;;;;;;;;;;5026915;28;20044;-67
2022/10/01 14:49:44;;;;;;;12.70;2.40;;;;;;;;;;5017427;28;20103;-68
2022/10/01 14:52:24;;;;;;;14.05;2.40;;;;;;;;;;5028558;28;20507;-68
2022/10/01 14:54:56;;;;;;;14.50;1.95;;;;;;;;;;5011565;28;20447;-68
2022/10/01 14:57:32;;;;;;;12.93;2.53;;;;;;;;;;5016008;28;20037;-68
2022/10/01 15:00:00;;;;;;;13.73;2.30;;;;;;;;;;5031874;28;20045;-68
2022/10/01 15:02:28;;;;;;;13.65;2.38;;;;;;;;;;5032096;28;20128;-67
2022/10/01 15:04:56;;;;;;;15.88;2.33;;;;;;;;;;5030813;28;20049;-68